Time;durP1;ratioP1;P1;durP2;ratioP2;P2;SDS_P1;SDS_P2;PMS_P1;PMS_P2;Temp;Humidity;BMP_temperature;BMP_pressure;BME280_temperature;BME280_humidity;BME280_pressure;Samples;Min_cycle;Max_cycle;Signal;HPM_P1;HPM_P2
2022/01/26 00:07:46;;;;;;;47.90;13.38;;;-0.90;99.90;;;;;;5112769;28;20035;-62
2022/01/26 00:10:13;;;;;;;35.75;10.93;;;-1.00;99.90;;;;;;5112361;28;20035;-61
2022/01/26 00:12:40;;;;;;;32.65;10.65;;;-1.00;99.90;;;;;;5112633;28;20059;-62
2022/01/26 00:15:07;;;;;;;36.88;7.28;;;-1.00;99.90;;;;;;5112403;28;20039;-62
2022/01/26 00:17:34;;;;;;;47.20;10.77;;;-1.00;99.90;;;;;;5112436;28;20048;-62
2022/01/26 00:20:12;;;;;;;33.97;10.52;;;-1.00;99.90;;;;;;5112193;28;20082;-62
2022/01/26 00:38:55;;;;;;;21.50;7.68;;;-0.90;99.90;;;;;;5112230;28;20047;-62
2022/01/26 00:41:34;;;;;;;21.60;8.82;;;-0.90;99.90;;;;;;5112125;28;20089;-62
2022/01/26 00:44:02;;;;;;;26.63;8.85;;;-0.80;99.90;;;;;;5112050;28;20036;-62
2022/01/26 00:46:30;;;;;;;22.90;9.60;;;-0.80;99.90;;;;;;5111713;28;20079;-62
2022/01/26 00:48:57;;;;;;;28.13;10.40;;;-0.80;99.90;;;;;;5111881;28;20036;-62
2022/01/26 00:51:24;;;;;;;35.63;13.30;;;-0.70;99.90;;;;;;5112036;28;20424;-62
2022/01/26 00:54:00;;;;;;;36.45;14.25;;;-0.80;99.90;;;;;;5112105;28;20454;-62
2022/01/26 00:56:27;;;;;;;36.60;14.43;;;-0.90;99.90;;;;;;5111556;28;20048;-62
2022/01/26 00:58:54;;;;;;;35.75;13.80;;;-0.90;99.90;;;;;;5112225;28;20047;-62
2022/01/26 01:01:21;;;;;;;37.80;15.85;;;-0.90;99.90;;;;;;5111915;28;20050;-62
2022/01/26 01:03:49;;;;;;;42.92;16.45;;;-0.90;99.90;;;;;;5111895;28;20051;-62
2022/01/26 01:08:47;;;;;;;48.75;18.05;;;-0.90;99.90;;;;;;5111773;28;20496;-62
2022/01/26 01:11:14;;;;;;;49.72;17.85;;;-0.90;99.90;;;;;;5111691;28;20036;-62
2022/01/26 01:13:43;;;;;;;44.72;16.88;;;-0.90;99.90;;;;;;5114901;28;20078;-62
2022/01/26 01:16:15;;;;;;;38.50;16.83;;;-0.90;99.90;;;;;;5115710;28;20040;-62
2022/01/26 01:18:49;;;;;;;45.67;17.08;;;-0.90;99.90;;;;;;5115893;28;20054;-61
2022/01/26 01:29:24;;;;;;;39.47;17.55;;;-0.90;99.90;;;;;;5115764;28;20043;-62
2022/01/26 01:31:58;;;;;;;30.80;15.82;;;-0.90;99.90;;;;;;5115827;28;20407;-62
2022/01/26 01:34:36;;;;;;;35.88;17.30;;;-1.00;99.90;;;;;;5115921;28;20051;-62
2022/01/26 01:37:06;;;;;;;;;;;-1.00;99.90;;;;;;5115921;28;20043;-62
2022/01/26 01:39:34;;;;;;;38.38;16.55;;;-1.00;99.90;;;;;;5115426;28;19972;-62
2022/01/26 01:42:03;;;;;;;40.42;17.60;;;-1.00;99.90;;;;;;5115529;28;20504;-62
2022/01/26 01:44:30;;;;;;;40.22;18.27;;;-1.00;99.90;;;;;;5115531;28;20043;-62
2022/01/26 01:46:57;;;;;;;37.33;17.15;;;-1.00;99.90;;;;;;5115507;28;20043;-62
2022/01/26 01:49:24;;;;;;;;;;;-0.90;99.90;;;;;;5116116;28;20089;-62
2022/01/26 01:51:56;;;;;;;33.38;15.63;;;-0.90;99.90;;;;;;5115138;28;20425;-62
2022/01/26 01:54:23;;;;;;;30.67;14.95;;;-0.90;99.90;;;;;;5115289;28;20043;-62
2022/01/26 01:56:55;;;;;;;;;;;-0.90;99.90;;;;;;5115289;28;20833;-63
2022/01/26 01:59:30;;;;;;;30.30;15.65;;;-0.90;99.90;;;;;;5115223;28;20070;-62
2022/01/26 02:01:58;;;;;;;33.83;16.98;;;-0.90;99.90;;;;;;5115033;28;20071;-62
2022/01/26 02:04:26;;;;;;;36.13;16.63;;;-0.80;99.90;;;;;;5114994;27;20035;-62
2022/01/26 02:06:53;;;;;;;29.65;15.38;;;-0.80;99.90;;;;;;5114630;28;20521;-62
2022/01/26 02:09:20;;;;;;;31.80;15.80;;;-0.90;99.90;;;;;;5115107;27;20097;-62
2022/01/26 02:11:48;;;;;;;;;;;-0.90;99.90;;;;;;5115465;28;20028;-62
2022/01/26 02:14:23;;;;;;;32.67;15.55;;;-1.00;99.90;;;;;;5115047;28;19920;-62
2022/01/26 02:17:06;;;;;;;31.33;15.20;;;-1.00;99.90;;;;;;5114369;28;20634;-62
2022/01/26 02:58:21;;;;;;;27.65;13.68;;;-0.70;99.90;;;;;;5114177;28;20104;-62
2022/01/26 03:03:27;;;;;;;28.23;13.50;;;-0.80;99.90;;;;;;5113899;28;20040;-62
2022/01/26 03:06:00;;;;;;;26.95;10.98;;;-0.70;99.90;;;;;;5113628;28;20114;-63
2022/01/26 03:08:39;;;;;;;22.15;11.23;;;-0.80;99.90;;;;;;5114200;28;20055;-62
2022/01/26 03:11:11;;;;;;;25.25;11.02;;;-0.80;99.90;;;;;;5113760;28;20563;-62
2022/01/26 03:13:54;;;;;;;23.77;11.32;;;-0.80;99.90;;;;;;5113683;28;20058;-62
2022/01/26 03:16:47;;;;;;;26.00;11.23;;;-0.90;99.90;;;;;;5113391;28;20529;-63
2022/01/26 03:19:34;;;;;;;18.48;7.53;;;-1.00;99.90;;;;;;5113651;28;20054;-62
2022/01/26 03:29:58;;;;;;;10.65;4.80;;;-1.40;99.90;;;;;;5113534;28;20055;-62
2022/01/26 03:35:39;;;;;;;;;;;-1.30;99.90;;;;;;5089873;28;20117;-62
2022/01/26 03:38:08;;;;;;;15.00;6.45;;;-1.40;99.90;;;;;;5113507;28;19919;-62
2022/01/26 03:40:38;;;;;;;13.77;5.38;;;-1.50;99.90;;;;;;5113209;28;20085;-62
2022/01/26 03:43:05;;;;;;;13.77;6.03;;;-1.50;99.90;;;;;;5113178;28;20043;-61
2022/01/26 03:45:32;;;;;;;16.88;6.45;;;-1.50;99.90;;;;;;5112875;28;20039;-62
2022/01/26 03:47:59;;;;;;;15.30;6.68;;;-1.50;99.90;;;;;;5113297;28;20074;-62
2022/01/26 03:50:26;;;;;;;15.45;6.47;;;-1.50;99.90;;;;;;5113030;28;20048;-62
2022/01/26 03:52:53;;;;;;;;;;;-1.60;99.90;;;;;;5113360;28;20035;-62
2022/01/26 03:55:20;;;;;;;14.63;5.85;;;-1.60;99.90;;;;;;5112536;28;19923;-62
2022/01/26 03:57:47;;;;;;;14.77;6.68;;;-1.70;99.90;;;;;;5113008;28;20096;-62
2022/01/26 04:00:15;;;;;;;17.73;7.93;;;-1.60;99.90;;;;;;5112919;28;20044;-62
2022/01/26 04:02:42;;;;;;;19.83;8.27;;;-1.70;99.90;;;;;;5112922;28;20043;-62
2022/01/26 04:05:11;;;;;;;24.50;9.63;;;-1.60;99.90;;;;;;5112490;28;20504;-62
2022/01/26 04:07:39;;;;;;;27.95;9.40;;;-1.60;99.90;;;;;;5113102;28;20393;-62
2022/01/26 04:10:18;;;;;;;20.55;8.60;;;-1.70;99.90;;;;;;5126043;22;20092;-62
2022/01/26 04:12:45;;;;;;;22.08;9.35;;;-1.70;99.90;;;;;;5071984;28;20036;-62
2022/01/26 04:15:24;;;;;;;24.83;10.95;;;-1.70;99.90;;;;;;5063321;28;20041;-62
2022/01/26 04:17:51;;;;;;;24.58;9.50;;;-1.80;99.90;;;;;;5052060;28;20090;-62
2022/01/26 04:20:19;;;;;;;27.00;9.93;;;-1.80;99.90;;;;;;5051721;28;20045;-62
2022/01/26 04:22:56;;;;;;;26.27;10.27;;;-1.80;99.90;;;;;;5051802;28;20087;-62
2022/01/26 04:25:25;;;;;;;26.40;11.05;;;-1.80;99.90;;;;;;5051666;28;20417;-62
2022/01/26 04:27:55;;;;;;;27.98;11.18;;;-1.70;99.90;;;;;;5051942;28;20072;-62
2022/01/26 04:30:22;;;;;;;25.83;10.70;;;-1.70;99.90;;;;;;5053373;28;20439;-62
2022/01/26 04:32:49;;;;;;;25.48;10.48;;;-1.80;99.90;;;;;;5034343;28;20079;-62
2022/01/26 04:35:16;;;;;;;21.65;8.85;;;-1.80;99.90;;;;;;5060737;28;20083;-62
2022/01/26 04:38:10;;;;;;;21.50;9.20;;;-1.90;99.90;;;;;;5060349;28;20056;-62
2022/01/26 04:40:39;;;;;;;24.83;8.50;;;-1.90;99.90;;;;;;5068151;28;20545;-62
2022/01/26 04:43:14;;;;;;;19.50;8.38;;;-1.90;99.90;;;;;;5051812;28;20049;-62
2022/01/26 04:45:41;;;;;;;20.45;8.48;;;-2.10;99.90;;;;;;5053132;28;20033;-62
2022/01/26 04:48:08;;;;;;;19.13;7.70;;;-2.00;99.90;;;;;;5071275;28;20044;-61
2022/01/26 04:50:35;;;;;;;19.20;7.45;;;-2.10;99.90;;;;;;5069362;28;20485;-62
2022/01/26 04:53:02;;;;;;;15.15;6.85;;;-2.00;99.90;;;;;;5051547;28;20083;-61
2022/01/26 04:55:29;;;;;;;16.88;7.43;;;-2.00;99.90;;;;;;5051387;28;20040;-62
2022/01/26 04:57:56;;;;;;;18.13;7.70;;;-2.00;99.90;;;;;;5051165;28;20044;-62
2022/01/26 05:00:23;;;;;;;19.75;7.38;;;-2.10;99.90;;;;;;5052640;28;20052;-62
2022/01/26 05:02:50;;;;;;;18.75;8.40;;;-2.00;99.90;;;;;;5052580;28;20048;-62
2022/01/26 05:05:18;;;;;;;19.20;7.18;;;-2.10;99.90;;;;;;5050893;28;20045;-62
2022/01/26 05:07:45;;;;;;;22.38;8.07;;;-2.10;99.90;;;;;;5051234;28;20033;-61
2022/01/26 05:10:12;;;;;;;21.90;7.78;;;-2.10;99.90;;;;;;5051172;28;20041;-62
2022/01/26 05:12:40;;;;;;;25.02;9.60;;;-2.10;99.90;;;;;;5066768;28;20566;-62
2022/01/26 05:15:07;;;;;;;21.67;8.25;;;-2.20;99.90;;;;;;5070970;28;20861;-59
2022/01/26 05:17:35;;;;;;;;;;;-2.20;99.90;;;;;;5071306;28;20489;-62
2022/01/26 05:20:05;;;;;;;27.20;8.38;;;-2.30;99.90;;;;;;5071090;28;19974;-62
2022/01/26 05:22:33;;;;;;;22.95;9.10;;;-2.30;99.90;;;;;;5067999;28;20385;-62
2022/01/26 05:25:00;;;;;;;26.08;10.15;;;-2.30;99.90;;;;;;5070615;28;20565;-62
2022/01/26 05:27:27;;;;;;;29.98;11.18;;;-2.20;99.90;;;;;;5070964;28;20067;-62
2022/01/26 05:29:54;;;;;;;22.63;9.25;;;-2.20;99.90;;;;;;5070726;28;20083;-63
2022/01/26 05:32:21;;;;;;;14.93;6.75;;;-2.10;99.90;;;;;;5068607;28;20515;-62
2022/01/26 05:34:48;;;;;;;23.58;10.43;;;-2.20;99.90;;;;;;5066644;28;20044;-62
2022/01/26 05:37:15;;;;;;;27.77;12.07;;;-2.20;99.90;;;;;;5070202;28;20033;-62
2022/01/26 05:39:42;;;;;;;42.50;15.70;;;-2.30;99.90;;;;;;5070529;28;20068;-62
2022/01/26 05:42:09;;;;;;;45.90;16.35;;;-2.30;99.90;;;;;;5068283;28;20084;-61
2022/01/26 05:44:36;;;;;;;58.35;23.08;;;-2.30;99.90;;;;;;5070524;28;20028;-62
2022/01/26 05:47:06;;;;;;;63.00;23.77;;;-2.20;99.90;;;;;;5070232;28;20037;-62
2022/01/26 05:49:33;;;;;;;45.88;16.48;;;-2.20;99.90;;;;;;5070507;28;20135;-62
2022/01/26 05:52:00;;;;;;;42.50;17.05;;;-2.10;99.90;;;;;;5070447;28;20044;-62
2022/01/26 05:54:27;;;;;;;21.30;10.13;;;-2.10;99.90;;;;;;5070515;28;20129;-62
2022/01/26 05:56:54;;;;;;;21.05;9.23;;;-2.10;99.90;;;;;;5069976;28;20090;-61
2022/01/26 05:59:21;;;;;;;18.85;7.55;;;-2.10;99.90;;;;;;5072567;28;20123;-62
2022/01/26 06:01:49;;;;;;;15.23;7.05;;;-2.10;99.90;;;;;;5073955;28;20051;-62
2022/01/26 06:04:17;;;;;;;25.95;10.98;;;-2.10;99.90;;;;;;5073847;28;20485;-62
2022/01/26 06:06:44;;;;;;;26.35;12.07;;;-2.10;99.90;;;;;;5073499;28;20040;-62
2022/01/26 06:09:11;;;;;;;31.38;14.32;;;-2.00;99.90;;;;;;5074491;28;20123;-62
2022/01/26 06:11:38;;;;;;;36.05;14.18;;;-2.00;99.90;;;;;;5073814;28;20493;-62
2022/01/26 06:14:05;;;;;;;39.45;15.43;;;-2.00;99.90;;;;;;5074279;28;20044;-62
2022/01/26 06:16:32;;;;;;;33.40;12.48;;;-1.90;99.90;;;;;;5073550;28;20044;-62
2022/01/26 06:18:59;;;;;;;23.20;10.98;;;-1.90;99.90;;;;;;5073963;28;20083;-62
2022/01/26 06:21:26;;;;;;;25.23;8.93;;;-1.90;99.90;;;;;;5073870;28;20136;-62
2022/01/26 06:23:53;;;;;;;19.58;8.60;;;-1.80;99.90;;;;;;5074113;28;20080;-62
2022/01/26 06:26:20;;;;;;;14.98;6.00;;;-1.80;99.90;;;;;;5073993;28;20049;-62
2022/01/26 06:28:47;;;;;;;11.77;5.35;;;-2.00;99.90;;;;;;5073783;28;20447;-62
2022/01/26 06:31:16;;;;;;;7.35;4.40;;;-2.20;99.90;;;;;;5073937;28;20055;-61
2022/01/26 06:33:46;;;;;;;16.92;4.88;;;-2.40;99.90;;;;;;5073691;28;20094;-62
2022/01/26 06:36:15;;;;;;;12.68;5.65;;;-2.40;99.90;;;;;;5073588;28;20386;-62
2022/01/26 06:38:44;;;;;;;11.10;4.65;;;-2.30;99.90;;;;;;5073861;28;20051;-62
2022/01/26 06:41:12;;;;;;;11.02;4.72;;;-2.30;99.90;;;;;;5073830;28;20037;-61
2022/01/26 06:43:50;;;;;;;7.72;4.53;;;-2.30;99.90;;;;;;5073696;28;20048;-62
2022/01/26 06:46:26;;;;;;;14.15;4.57;;;-2.30;99.90;;;;;;5072929;28;20036;-62
2022/01/26 06:49:03;;;;;;;8.27;4.47;;;-2.30;99.90;;;;;;5073704;28;20428;-62
2022/01/26 06:51:30;;;;;;;11.10;5.35;;;-2.50;99.90;;;;;;5073595;28;20044;-61
2022/01/26 06:53:57;;;;;;;8.90;4.68;;;-2.60;99.90;;;;;;5073765;28;20119;-62
2022/01/26 06:56:24;;;;;;;10.95;4.95;;;-2.70;99.90;;;;;;5071856;28;20048;-61
2022/01/26 06:58:53;;;;;;;10.15;4.38;;;-2.70;99.90;;;;;;5072618;28;20179;-60
2022/01/26 07:01:20;;;;;;;10.77;5.05;;;-2.70;99.90;;;;;;5071911;28;20040;-60
2022/01/26 07:03:47;;;;;;;17.30;7.13;;;-2.80;99.90;;;;;;5071436;28;20045;-59
2022/01/26 07:06:14;;;;;;;9.23;4.47;;;-2.70;99.90;;;;;;5070950;28;20046;-62
2022/01/26 07:08:42;;;;;;;7.57;3.75;;;-2.60;99.90;;;;;;5072281;28;20068;-62
2022/01/26 07:11:09;;;;;;;11.57;5.50;;;-2.80;99.90;;;;;;5071893;28;20497;-62
2022/01/26 07:13:36;;;;;;;9.75;4.55;;;-2.80;99.90;;;;;;5072713;28;20075;-62
2022/01/26 07:21:34;;;;;;;9.50;4.38;;;-2.90;99.90;;;;;;5072767;28;20098;-62
2022/01/26 07:24:01;;;;;;;10.45;4.75;;;-2.80;99.90;;;;;;5072699;28;20489;-62
2022/01/26 07:26:29;;;;;;;41.78;16.35;;;-2.80;99.90;;;;;;5054692;28;20425;-61
2022/01/26 07:28:59;;;;;;;35.42;14.00;;;-2.70;99.90;;;;;;5073112;28;20041;-62
2022/01/26 07:31:26;;;;;;;28.58;11.07;;;-2.70;99.90;;;;;;5072826;28;20051;-62
2022/01/26 07:33:56;;;;;;;24.08;8.98;;;-2.80;99.90;;;;;;5072703;28;20044;-62
2022/01/26 07:36:24;;;;;;;21.05;7.95;;;-2.90;99.90;;;;;;5072009;28;20047;-62
2022/01/26 07:38:54;;;;;;;26.27;10.70;;;-2.90;99.90;;;;;;5072732;28;20135;-62
2022/01/26 07:41:22;;;;;;;27.08;10.98;;;-2.80;99.90;;;;;;5072637;28;20041;-62
2022/01/26 07:43:49;;;;;;;;;;;-2.90;99.90;;;;;;5073021;28;20608;-61
2022/01/26 07:46:17;;;;;;;27.38;12.07;;;-2.80;99.90;;;;;;5072083;28;19959;-62
2022/01/26 07:48:44;;;;;;;28.92;14.13;;;-2.80;99.90;;;;;;5054146;28;20448;-62
2022/01/26 07:51:11;;;;;;;29.95;15.30;;;-2.80;99.90;;;;;;5072603;28;20048;-61
2022/01/26 07:53:38;;;;;;;26.85;14.23;;;-2.80;99.90;;;;;;5080092;28;20131;-62
2022/01/26 07:56:05;;;;;;;25.58;13.52;;;-2.80;99.90;;;;;;5082601;28;20036;-62
2022/01/26 07:58:32;;;;;;;42.78;16.73;;;-2.60;99.90;;;;;;5092518;28;20043;-62
2022/01/26 08:00:59;;;;;;;36.55;15.50;;;-2.60;99.90;;;;;;5092397;28;20040;-62
2022/01/26 08:03:33;;;;;;;29.95;14.27;;;-2.60;99.90;;;;;;5092327;28;20036;-62
2022/01/26 08:06:01;;;;;;;25.55;12.05;;;-2.60;99.90;;;;;;5082149;28;20432;-62
2022/01/26 08:08:29;;;;;;;24.45;11.07;;;-2.50;99.90;;;;;;5092006;28;20063;-62
2022/01/26 08:10:57;;;;;;;24.95;11.23;;;-2.50;99.90;;;;;;5092171;28;20048;-61
2022/01/26 08:13:24;;;;;;;25.13;11.00;;;-2.40;99.90;;;;;;5092323;28;20040;-62
2022/01/26 08:15:56;;;;;;;27.58;10.80;;;-2.30;99.90;;;;;;5091616;28;20050;-62
2022/01/26 08:18:25;;;;;;;27.45;9.60;;;-2.30;99.90;;;;;;5092142;28;20500;-62
2022/01/26 08:20:52;;;;;;;23.20;10.27;;;-2.30;99.90;;;;;;5082224;28;20436;-62
2022/01/26 08:23:21;;;;;;;22.25;10.05;;;-2.40;99.90;;;;;;5091221;28;20102;-62
2022/01/26 08:25:51;;;;;;;23.10;10.68;;;-2.40;99.90;;;;;;5091590;28;20435;-62
2022/01/26 08:28:27;;;;;;;21.48;10.23;;;-2.30;99.90;;;;;;5091585;28;20044;-62
2022/01/26 08:30:54;;;;;;;26.23;10.52;;;-2.30;99.90;;;;;;5091956;28;20044;-62
2022/01/26 08:33:21;;;;;;;29.33;11.15;;;-2.30;99.90;;;;;;5087621;28;20090;-62
2022/01/26 08:35:48;;;;;;;27.63;11.95;;;-2.20;99.90;;;;;;5083317;28;20423;-62
2022/01/26 08:38:15;;;;;;;;;;;-2.20;99.90;;;;;;5092341;28;20051;-62
2022/01/26 08:40:43;;;;;;;23.88;10.55;;;-2.20;99.90;;;;;;5091541;28;19920;-62
2022/01/26 08:43:10;;;;;;;27.33;10.82;;;-2.20;99.90;;;;;;5091734;28;20048;-62
2022/01/26 08:45:37;;;;;;;26.20;11.55;;;-2.10;99.90;;;;;;5091492;28;20123;-62
2022/01/26 08:48:04;;;;;;;29.40;12.73;;;-2.10;99.90;;;;;;5091893;28;20036;-62
2022/01/26 08:50:32;;;;;;;28.73;11.40;;;-1.90;99.90;;;;;;5091740;28;20036;-62
2022/01/26 08:52:59;;;;;;;24.75;10.98;;;-1.70;99.90;;;;;;5091452;28;20500;-62
2022/01/26 08:55:26;;;;;;;26.33;10.93;;;-1.60;99.90;;;;;;5091095;28;20052;-61
2022/01/26 08:57:53;;;;;;;24.30;10.88;;;-1.50;99.90;;;;;;5091523;28;20046;-62
2022/01/26 09:00:20;;;;;;;28.63;11.98;;;-1.30;99.90;;;;;;5091567;28;20059;-62
2022/01/26 09:02:50;;;;;;;29.70;12.88;;;-1.30;99.90;;;;;;5091513;28;20445;-62
2022/01/26 09:05:18;;;;;;;35.47;16.08;;;-1.20;99.90;;;;;;5091040;28;20048;-61
2022/01/26 09:07:49;;;;;;;28.85;12.57;;;-1.20;99.90;;;;;;5092038;28;20075;-62
2022/01/26 09:10:16;;;;;;;24.67;11.32;;;-1.10;99.90;;;;;;5091302;28;20520;-62
2022/01/26 09:12:45;;;;;;;26.83;11.63;;;-1.10;99.90;;;;;;5091323;28;20111;-62
2022/01/26 09:15:12;;;;;;;24.88;11.43;;;-1.00;99.90;;;;;;5091166;28;20047;-62
2022/01/26 09:17:40;;;;;;;22.42;12.27;;;-0.80;99.90;;;;;;5091519;28;20113;-62
2022/01/26 09:20:07;;;;;;;;;;;-0.70;99.90;;;;;;5091789;28;20044;-62
2022/01/26 09:22:34;;;;;;;23.00;11.98;;;-0.60;99.90;;;;;;5091210;28;20038;-59
2022/01/26 09:25:01;;;;;;;28.23;13.88;;;-0.40;99.90;;;;;;5083030;28;20111;-62
2022/01/26 09:27:28;;;;;;;28.27;12.85;;;-0.40;99.90;;;;;;5082491;28;20119;-62
2022/01/26 09:29:55;;;;;;;32.65;13.68;;;-0.30;99.90;;;;;;5091142;28;20063;-59
2022/01/26 09:32:22;;;;;;;24.25;10.93;;;-0.20;99.90;;;;;;5091160;28;20040;-62
2022/01/26 09:34:49;;;;;;;26.05;11.77;;;-0.10;99.90;;;;;;5094291;28;20052;-62
2022/01/26 09:37:17;;;;;;;24.65;11.82;;;-0.10;99.90;;;;;;5094790;28;20101;-62
2022/01/26 09:39:44;;;;;;;;;;;-0.10;99.90;;;;;;5095818;28;20048;-62
2022/01/26 09:42:11;;;;;;;28.45;13.00;;;-0.20;99.90;;;;;;5095020;28;19920;-62
2022/01/26 09:44:39;;;;;;;24.88;12.00;;;-0.10;99.90;;;;;;5095289;28;20055;-62
2022/01/26 09:47:07;;;;;;;;;;;-0.10;99.90;;;;;;5095084;28;20048;-59
2022/01/26 09:49:36;;;;;;;23.15;10.82;;;0.00;99.90;;;;;;5094980;28;19920;-59
2022/01/26 09:52:28;;;;;;;29.13;11.27;;;0.00;99.90;;;;;;5094897;28;20446;-62
2022/01/26 09:54:59;;;;;;;23.40;12.07;;;0.00;99.90;;;;;;5094954;28;20075;-59
2022/01/26 09:57:28;;;;;;;30.35;13.10;;;0.00;99.90;;;;;;5094549;28;20492;-62
2022/01/26 09:59:56;;;;;;;24.55;12.40;;;0.10;99.90;;;;;;5076647;28;20051;-59
2022/01/26 10:02:29;;;;;;;21.88;11.45;;;0.00;99.90;;;;;;5076233;28;20044;-59
2022/01/26 10:05:05;;;;;;;24.63;11.70;;;0.10;99.90;;;;;;5094697;28;20043;-62
2022/01/26 10:15:55;;;;;;;30.50;12.20;;;0.00;99.90;;;;;;5053627;28;20037;-62
2022/01/26 10:18:22;;;;;;;20.67;10.82;;;-0.10;99.90;;;;;;5054242;28;20497;-62
2022/01/26 10:20:54;;;;;;;22.40;10.88;;;-0.10;99.90;;;;;;5054080;28;20056;-62
2022/01/26 10:23:37;;;;;;;22.25;10.52;;;0.00;99.90;;;;;;5054169;28;20136;-62
2022/01/26 10:26:12;;;;;;;22.98;11.02;;;0.00;99.90;;;;;;5053923;28;20096;-62
2022/01/26 10:28:49;;;;;;;25.63;12.00;;;0.10;99.90;;;;;;5053961;28;20041;-62
2022/01/26 10:31:24;;;;;;;24.23;11.15;;;0.30;99.90;;;;;;5053836;28;20053;-62
2022/01/26 10:34:22;;;;;;;25.33;10.98;;;0.30;99.90;;;;;;5053907;28;20128;-62
2022/01/26 10:36:53;;;;;;;22.25;10.77;;;0.30;99.90;;;;;;5053696;28;20049;-62
2022/01/26 10:39:31;;;;;;;23.75;11.07;;;0.40;99.90;;;;;;5053916;28;20083;-62
2022/01/26 10:42:02;;;;;;;23.50;10.73;;;0.50;99.90;;;;;;5053842;28;20044;-63
2022/01/26 10:44:48;;;;;;;22.25;10.73;;;0.60;99.90;;;;;;5053769;28;20088;-62
2022/01/26 10:47:26;;;;;;;21.92;10.68;;;0.80;99.90;;;;;;5053084;28;20037;-62
2022/01/26 10:50:18;;;;;;;18.27;9.95;;;0.70;99.90;;;;;;5053628;28;20040;-62
2022/01/26 10:52:43;;;;;;;17.25;10.45;;;0.80;99.90;;;;;;5053538;28;20120;-62
2022/01/26 10:55:11;;;;;;;20.30;8.48;;;0.70;99.90;;;;;;5053204;28;20072;-62
2022/01/26 10:57:38;;;;;;;23.23;12.30;;;0.70;99.90;;;;;;5053337;28;20067;-62
2022/01/26 11:00:06;;;;;;;14.93;8.15;;;0.80;99.90;;;;;;5053472;28;20052;-63
2022/01/26 11:02:34;;;;;;;25.55;11.93;;;0.80;99.90;;;;;;5053249;28;20068;-62
2022/01/26 11:05:02;;;;;;;20.88;10.82;;;1.00;99.90;;;;;;5053178;28;20440;-62
2022/01/26 11:07:40;;;;;;;19.45;10.75;;;1.00;99.90;;;;;;5053157;28;20079;-62
2022/01/26 11:10:08;;;;;;;19.88;10.73;;;1.10;99.90;;;;;;5053025;28;20559;-62
2022/01/26 11:12:40;;;;;;;17.63;9.38;;;1.20;99.90;;;;;;5053061;28;20498;-62
2022/01/26 11:15:09;;;;;;;18.10;9.77;;;1.30;99.90;;;;;;5052882;28;20110;-62
2022/01/26 11:17:42;;;;;;;19.98;9.40;;;1.40;99.90;;;;;;5053021;28;20048;-62
2022/01/26 11:20:20;;;;;;;20.75;11.65;;;1.50;99.90;;;;;;5053111;28;20528;-62
2022/01/26 11:22:58;;;;;;;18.83;10.80;;;1.60;99.90;;;;;;5053091;28;20045;-62
2022/01/26 11:25:28;;;;;;;17.90;10.05;;;1.70;99.90;;;;;;5052343;28;20044;-62
2022/01/26 11:27:57;;;;;;;20.00;10.30;;;1.70;99.90;;;;;;5035496;28;20033;-62
2022/01/26 11:30:32;;;;;;;22.85;11.88;;;1.80;99.90;;;;;;5052774;28;20073;-62
2022/01/26 11:33:13;;;;;;;18.70;10.35;;;1.70;99.90;;;;;;5052674;28;20041;-62
2022/01/26 11:35:44;;;;;;;18.20;10.65;;;1.90;99.90;;;;;;5052338;28;20045;-62
2022/01/26 11:46:59;;;;;;;21.23;10.88;;;2.10;99.90;;;;;;5052101;28;20508;-62
2022/01/26 11:49:37;;;;;;;20.08;11.07;;;2.10;99.90;;;;;;5052513;28;20040;-62
2022/01/26 11:52:05;;;;;;;19.95;11.18;;;2.20;99.90;;;;;;5052300;28;20145;-62
2022/01/26 11:54:56;;;;;;;24.23;9.88;;;2.20;99.90;;;;;;5051949;28;20053;-62
2022/01/26 11:57:46;;;;;;;17.95;9.77;;;2.20;99.90;;;;;;5052024;28;20132;-62
2022/01/26 12:00:20;;;;;;;26.65;10.20;;;2.20;99.90;;;;;;5052198;28;20048;-62
2022/01/26 12:05:19;;;;;;;16.40;9.25;;;2.30;99.90;;;;;;5051774;28;20076;-62
2022/01/26 12:07:48;;;;;;;17.70;10.40;;;2.10;99.90;;;;;;5051941;28;20041;-62
2022/01/26 12:10:28;;;;;;;18.83;9.85;;;2.20;99.90;;;;;;5052060;28;20055;-62
2022/01/26 12:13:21;;;;;;;16.27;9.23;;;2.30;99.90;;;;;;5052088;28;20045;-62
2022/01/26 12:15:53;;;;;;;18.65;8.63;;;2.30;99.90;;;;;;5051752;28;20045;-63
2022/01/26 12:18:29;;;;;;;15.73;9.18;;;2.40;99.90;;;;;;5051984;28;20045;-62
2022/01/26 12:35:37;;;;;;;12.75;7.80;;;2.80;99.90;;;;;;5051239;28;20482;-62
2022/01/26 12:38:26;;;;;;;15.55;8.93;;;2.90;99.90;;;;;;5051694;28;20041;-62
2022/01/26 12:43:43;;;;;;;18.27;10.40;;;2.90;99.90;;;;;;5051657;28;20040;-62
2022/01/26 12:46:16;;;;;;;21.40;11.48;;;2.90;99.90;;;;;;5050958;28;20041;-63
2022/01/26 12:48:48;;;;;;;21.98;11.80;;;2.90;99.90;;;;;;5051454;28;20278;-62
2022/01/26 12:51:16;;;;;;;18.63;11.00;;;2.80;99.90;;;;;;5051807;28;20504;-62
2022/01/26 12:53:43;;;;;;;16.90;10.25;;;2.80;99.90;;;;;;5051169;28;20513;-62
2022/01/26 12:56:12;;;;;;;17.63;9.40;;;2.70;99.90;;;;;;5050993;28;20520;-62
2022/01/26 12:58:41;;;;;;;20.65;11.25;;;2.80;99.90;;;;;;5051379;28;20123;-62
2022/01/26 13:01:17;;;;;;;18.95;9.82;;;2.90;99.90;;;;;;5051242;28;20041;-63
2022/01/26 13:03:47;;;;;;;16.50;8.80;;;3.00;99.90;;;;;;5051142;28;20127;-62
2022/01/26 13:06:21;;;;;;;17.17;9.85;;;3.10;99.90;;;;;;5030944;28;20495;-63
2022/01/26 13:08:51;;;;;;;16.25;9.50;;;3.10;99.90;;;;;;5030858;28;20052;-62
2022/01/26 13:11:30;;;;;;;17.02;9.80;;;3.20;99.90;;;;;;5031154;28;20041;-63
2022/01/26 13:14:18;;;;;;;16.65;9.73;;;3.20;99.90;;;;;;5031094;28;20148;-63
2022/01/26 13:39:34;;;;;;;18.92;9.57;;;3.50;99.90;;;;;;5031149;28;20099;-62
2022/01/26 13:50:45;;;;;;;21.38;9.88;;;3.70;99.90;;;;;;5030763;28;20049;-62
2022/01/26 13:53:18;;;;;;;20.08;9.60;;;3.70;99.90;;;;;;5030893;28;20041;-63
2022/01/26 14:01:01;;;;;;;20.80;11.80;;;3.70;99.90;;;;;;5031041;28;20096;-63
2022/01/26 14:03:31;;;;;;;23.15;10.45;;;3.70;99.90;;;;;;5031340;28;20037;-63
2022/01/26 14:05:59;;;;;;;19.20;9.52;;;3.80;99.90;;;;;;5030636;28;20057;-62
2022/01/26 14:08:26;;;;;;;;;;;3.80;99.90;;;;;;5031376;28;20038;-62
2022/01/26 14:10:53;;;;;;;18.08;8.45;;;3.90;99.90;;;;;;5030337;28;19928;-63
2022/01/26 14:13:22;;;;;;;18.45;8.77;;;3.90;99.90;;;;;;5030888;28;20095;-63
2022/01/26 14:15:52;;;;;;;17.75;9.65;;;3.80;99.90;;;;;;5030523;28;20041;-62
2022/01/26 14:23:43;;;;;;;;;;;3.70;99.90;;;;;;5034755;28;20136;-62
2022/01/26 14:26:12;;;;;;;19.15;7.82;;;3.70;99.90;;;;;;5033855;28;19921;-62
2022/01/26 14:28:39;;;;;;;18.30;7.72;;;3.70;99.90;;;;;;5034157;28;20038;-62
2022/01/26 14:31:38;;;;;;;15.65;7.80;;;3.70;99.90;;;;;;5033848;28;20049;-62
2022/01/26 14:34:36;;;;;;;14.07;7.38;;;3.60;99.90;;;;;;5033969;28;20048;-63
2022/01/26 14:39:31;;;;;;;17.85;8.90;;;3.60;99.90;;;;;;5033795;28;20045;-62
2022/01/26 14:53:42;;;;;;;18.25;8.98;;;3.30;99.90;;;;;;5034370;28;20034;-62
2022/01/26 15:22:14;;;;;;;41.35;22.02;;;2.30;99.90;;;;;;5033025;28;20087;-62
2022/01/26 15:33:01;;;;;;;34.60;17.45;;;1.80;99.90;;;;;;5032297;28;20099;-62
2022/01/26 15:34:57;;;;;;;25.40;12.80;;;1.70;99.90;;;;;;5032663;28;20052;-63
2022/01/26 15:40:29;;;;;;;23.90;12.07;;;1.60;99.90;;;;;;5032864;28;20049;-62
2022/01/26 16:07:40;;;;;;;18.23;10.48;;;1.00;99.90;;;;;;5031939;28;20037;-62
2022/01/26 16:16:28;;;;;;;23.52;11.95;;;0.90;99.90;;;;;;5098890;22;20052;-60
2022/01/26 17:27:58;;;;;;;41.92;18.30;;;0.00;99.90;;;;;;5050551;28;20135;-60
2022/01/26 17:43:27;;;;;;;25.88;13.35;;;-0.20;99.90;;;;;;5070165;28;20041;-62
2022/01/26 18:40:10;;;;;;;23.58;10.20;;;-0.30;99.90;;;;;;4969473;28;20069;-61
2022/01/26 18:50:50;;;;;;;25.40;12.55;;;-0.40;99.90;;;;;;4967294;28;20193;-61
2022/01/26 18:53:16;;;;;;;20.92;10.82;;;-0.40;99.90;;;;;;4964730;28;20407;-61
2022/01/26 18:55:44;;;;;;;21.17;10.52;;;-0.40;99.90;;;;;;4968410;28;20043;-61
2022/01/26 18:58:11;;;;;;;18.35;8.98;;;-0.50;99.90;;;;;;4973004;28;20491;-61
2022/01/26 19:00:38;;;;;;;20.02;9.98;;;-0.60;99.90;;;;;;4979998;28;20038;-62
2022/01/26 19:03:05;;;;;;;;;;;-0.60;99.90;;;;;;4980068;28;20117;-63
2022/01/26 19:05:32;;;;;;;32.47;15.57;;;-0.60;99.90;;;;;;4968207;28;19929;-61
2022/01/26 19:07:59;;;;;;;26.98;13.40;;;-0.30;99.90;;;;;;4972890;28;20090;-62
2022/01/26 19:10:31;;;;;;;38.17;16.10;;;-0.50;99.90;;;;;;4961133;28;20081;-62
2022/01/26 19:12:58;;;;;;;23.10;12.40;;;-0.50;99.90;;;;;;4974168;28;20042;-62
2022/01/26 19:15:29;;;;;;;20.02;9.60;;;-0.60;99.90;;;;;;4974131;28;20043;-62
2022/01/26 19:18:02;;;;;;;20.27;11.68;;;-0.70;99.90;;;;;;4974087;28;20494;-62
2022/01/26 19:25:56;;;;;;;53.97;24.42;;;-1.00;99.90;;;;;;4968858;28;20062;-63
2022/01/26 19:28:25;;;;;;;89.45;34.63;;;-0.90;99.90;;;;;;4971991;28;20450;-63
2022/01/26 19:43:10;;;;;;;19.25;10.02;;;-0.90;99.90;;;;;;4973348;28;20074;-62
2022/01/26 19:44:49;;;;;;;22.27;11.35;;;-0.90;99.90;;;;;;4973125;28;20396;-62
2022/01/26 19:52:47;;;;;;;23.42;11.52;;;-0.80;99.90;;;;;;4972871;28;20050;-62